Spotswood, New Jersey
Current Conditions -  °F | °C
As of 3:35 AM on Sunday 26 Oct 2014 (Local Time) from KLDJ Reporting Station
Clear Clear  
Wind Chill: 16°   Ceiling: Unl
Heat Index: 16°   Visibility: 10mi
Dew Point:   Wind: 3mph
Humidity: 61%   Direction: 280°W
Pressure: 29.57"   Gusts: NA
Location:  40.4°N, 74.39°W
Report Text: KLDJ 260735Z AUTO 28003KT 10SM CLR 17/09 A2957 RMK AO2 T01650090
Loading
Personal Weather Stations






























Interactive Weather Map
Tropical Storm Tracking
New forecast layout! Learn more

10-Day Weather Forecast

Advertisements
Track Severe Weather on mobile